createdAt,value
2022-12-11T00:00:27.092Z,87.53
2022-12-11T00:02:54.083Z,72.97
2022-12-11T00:05:20.978Z,86.73
2022-12-11T00:07:47.787Z,73.93
2022-12-11T00:10:14.648Z,70.53
2022-12-11T00:12:41.649Z,75.90
2022-12-11T00:15:09.519Z,77.80
2022-12-11T00:17:36.664Z,80.90
2022-12-11T00:20:05.080Z,77.63
2022-12-11T00:22:31.959Z,75.00
2022-12-11T00:24:58.681Z,79.03
2022-12-11T00:27:25.960Z,83.80
2022-12-11T00:29:52.763Z,70.13
2022-12-11T00:32:19.605Z,82.00
2022-12-11T00:34:46.384Z,79.33
2022-12-11T00:37:13.213Z,82.17
2022-12-11T00:39:40.066Z,72.83
2022-12-11T00:42:08.176Z,66.63
2022-12-11T00:44:35.874Z,68.53
2022-12-11T00:47:03.676Z,64.50
2022-12-11T00:49:30.479Z,66.47
2022-12-11T00:51:57.386Z,54.57
2022-12-11T00:54:24.273Z,59.60
2022-12-11T00:56:51.107Z,69.23
2022-12-11T00:59:17.950Z,74.17
2022-12-11T01:01:44.888Z,79.57
2022-12-11T01:04:11.803Z,74.27
2022-12-11T01:06:39.581Z,70.67
2022-12-11T01:09:24.845Z,68.90
2022-12-11T01:11:52.609Z,64.00
2022-12-11T01:14:19.692Z,59.93
2022-12-11T01:16:46.737Z,57.67
2022-12-11T01:19:13.574Z,67.00
2022-12-11T01:21:41.134Z,59.93
2022-12-11T01:24:08.040Z,66.00
2022-12-11T01:26:35.228Z,63.60
2022-12-11T01:29:02.025Z,81.40
2022-12-11T01:31:29.379Z,65.50
2022-12-11T01:33:56.832Z,62.63
2022-12-11T01:36:24.417Z,60.50
2022-12-11T01:38:51.432Z,62.27
2022-12-11T01:41:19.164Z,54.43
2022-12-11T01:44:06.232Z,63.80
2022-12-11T01:46:36.645Z,64.43
2022-12-11T01:49:11.109Z,71.47
2022-12-11T01:51:55.703Z,63.07
2022-12-11T01:54:26.198Z,64.80
2022-12-11T01:56:57.211Z,63.60
2022-12-11T01:59:29.316Z,73.27
2022-12-11T02:02:20.840Z,69.43
2022-12-11T02:04:51.645Z,74.90
2022-12-11T02:07:18.518Z,67.77
2022-12-11T02:09:48.221Z,68.20
2022-12-11T02:12:37.551Z,64.50
2022-12-11T02:15:33.717Z,60.20
2022-12-11T02:18:30.091Z,70.27
2022-12-11T02:21:15.506Z,64.83
2022-12-11T02:24:24.902Z,66.80
2022-12-11T02:27:06.564Z,65.00
2022-12-11T02:30:08.291Z,71.50
2022-12-11T02:32:44.964Z,66.03
2022-12-11T02:35:32.065Z,71.13
2022-12-11T02:38:05.659Z,73.23
2022-12-11T02:40:38.358Z,69.90
2022-12-11T02:43:10.199Z,67.73
2022-12-11T02:45:40.622Z,77.90
2022-12-11T02:48:10.788Z,76.30
2022-12-11T02:50:44.061Z,70.63
2022-12-11T02:53:15.753Z,79.33
2022-12-11T02:55:44.817Z,71.20
2022-12-11T02:58:27.347Z,68.13
2022-12-11T03:00:54.126Z,66.80
2022-12-11T03:03:21.814Z,81.37
2022-12-11T03:05:48.685Z,64.90
2022-12-11T03:08:18.765Z,67.33
2022-12-11T03:10:46.441Z,72.80
2022-12-11T03:13:18.381Z,61.93
2022-12-11T03:16:16.133Z,74.40
2022-12-11T03:18:59.877Z,75.13
2022-12-11T03:21:54.583Z,71.03
2022-12-11T03:24:39.001Z,60.90
2022-12-11T03:27:34.902Z,66.77
2022-12-11T03:30:12.768Z,58.40
2022-12-11T03:33:06.809Z,73.47
2022-12-11T03:35:43.984Z,65.03
2022-12-11T03:38:28.065Z,68.60
2022-12-11T03:41:00.861Z,67.30
2022-12-11T03:43:32.046Z,65.77
2022-12-11T03:46:01.180Z,55.03
2022-12-11T03:48:35.288Z,54.80
2022-12-11T03:51:07.669Z,67.10
2022-12-11T03:53:37.357Z,55.03
2022-12-11T03:56:10.105Z,60.53
2022-12-11T03:58:36.948Z,64.17
2022-12-11T04:01:04.025Z,64.60
2022-12-11T04:03:30.895Z,61.17
2022-12-11T04:05:57.912Z,59.83
2022-12-11T04:08:24.856Z,63.27
2022-12-11T04:11:11.508Z,68.30
2022-12-11T04:13:40.173Z,67.83
2022-12-11T04:16:08.253Z,60.83
2022-12-11T04:18:53.847Z,65.97
2022-12-11T04:21:39.824Z,65.97
2022-12-11T04:24:16.427Z,68.13
2022-12-11T04:26:46.189Z,64.93
2022-12-11T04:29:14.335Z,75.50
2022-12-11T04:31:41.293Z,68.93
2022-12-11T04:34:08.353Z,72.40
2022-12-11T04:36:35.734Z,70.10
2022-12-11T04:39:03.980Z,67.90
2022-12-11T04:41:30.923Z,63.00
2022-12-11T04:43:57.830Z,68.40
2022-12-11T04:46:25.761Z,69.60
2022-12-11T04:48:57.736Z,65.23
2022-12-11T04:51:25.335Z,70.67
2022-12-11T04:53:52.816Z,70.80
2022-12-11T04:56:19.865Z,72.17
2022-12-11T04:58:47.167Z,77.80
2022-12-11T05:01:21.016Z,69.27
2022-12-11T05:03:48.741Z,79.60
2022-12-11T05:06:15.664Z,69.40
2022-12-11T05:08:45.314Z,80.57
2022-12-11T05:11:15.188Z,72.60
2022-12-11T05:13:43.200Z,75.33
2022-12-11T05:16:14.384Z,77.90
2022-12-11T05:18:41.649Z,75.63
2022-12-11T05:21:14.736Z,70.63
2022-12-11T05:23:42.575Z,76.53
2022-12-11T05:26:15.820Z,81.40
2022-12-11T05:28:43.831Z,86.17
2022-12-11T05:31:21.578Z,73.40
2022-12-11T05:33:50.191Z,71.33
2022-12-11T05:36:24.425Z,77.43
2022-12-11T05:38:52.301Z,79.00
2022-12-11T05:41:23.023Z,75.87
2022-12-11T05:43:50.093Z,64.60
2022-12-11T05:46:22.031Z,67.77
2022-12-11T05:48:56.110Z,80.23
2022-12-11T05:51:23.721Z,70.77
2022-12-11T05:53:52.535Z,81.97
2022-12-11T05:56:23.562Z,84.23
2022-12-11T05:58:51.143Z,80.40
2022-12-11T06:01:33.290Z,109.27
2022-12-11T06:04:01.527Z,78.37
2022-12-11T06:06:28.861Z,75.10
2022-12-11T06:08:59.062Z,79.93
2022-12-11T06:11:30.492Z,86.33
2022-12-11T06:13:57.832Z,78.30
2022-12-11T06:16:25.491Z,69.27
2022-12-11T06:18:55.847Z,78.80
2022-12-11T06:21:33.328Z,80.93
2022-12-11T06:24:03.161Z,69.33
2022-12-11T06:26:30.638Z,84.80
2022-12-11T06:28:57.632Z,88.33
2022-12-11T06:31:24.582Z,76.57
2022-12-11T06:33:51.351Z,78.87
2022-12-11T06:36:22.327Z,81.27
2022-12-11T06:38:49.742Z,72.17
2022-12-11T06:41:17.421Z,69.90
2022-12-11T06:43:44.874Z,70.17
2022-12-11T06:46:18.813Z,63.43
2022-12-11T06:48:47.318Z,68.67
2022-12-11T06:51:21.674Z,62.40
2022-12-11T06:53:57.054Z,74.23
2022-12-11T06:56:24.662Z,73.67
2022-12-11T06:58:52.464Z,67.10
2022-12-11T07:01:23.860Z,65.87
2022-12-11T07:03:57.984Z,75.33
2022-12-11T07:06:27.369Z,69.07
2022-12-11T07:08:54.556Z,57.83
2022-12-11T07:11:22.219Z,66.63
2022-12-11T07:13:49.413Z,50.67
2022-12-11T07:16:18.194Z,38.27
2022-12-11T07:18:51.075Z,44.33
2022-12-11T07:21:20.478Z,46.53
2022-12-11T07:23:49.054Z,45.53
2022-12-11T07:26:20.174Z,38.83
2022-12-11T07:28:47.434Z,47.80
2022-12-11T07:31:26.224Z,36.10
2022-12-11T07:33:55.718Z,39.97
2022-12-11T07:36:24.377Z,37.33
2022-12-11T07:38:51.712Z,44.63
2022-12-11T07:41:19.160Z,43.53
2022-12-11T07:43:46.471Z,35.97
2022-12-11T07:46:19.697Z,31.33
2022-12-11T07:48:48.410Z,34.70
2022-12-11T07:51:19.646Z,35.10
2022-12-11T07:53:49.722Z,34.23
2022-12-11T07:56:18.448Z,34.10
2022-12-11T07:58:45.878Z,31.87
2022-12-11T08:01:23.205Z,39.10
2022-12-11T08:03:50.788Z,36.47
2022-12-11T08:06:18.720Z,37.03
2022-12-11T08:08:45.618Z,39.63
2022-12-11T08:11:15.417Z,45.90
2022-12-11T08:13:43.656Z,37.37
2022-12-11T08:16:14.506Z,38.57
2022-12-11T08:18:43.210Z,44.70
2022-12-11T08:21:20.283Z,33.73
2022-12-11T08:23:47.789Z,30.90
2022-12-11T08:26:23.473Z,33.83
2022-12-11T08:28:50.428Z,31.00
2022-12-11T08:31:18.784Z,29.70
2022-12-11T08:33:46.436Z,33.47
2022-12-11T08:36:16.771Z,32.93
2022-12-11T08:38:43.772Z,28.83
2022-12-11T08:41:22.953Z,21.87
2022-12-11T08:43:54.782Z,25.97
2022-12-11T08:46:25.121Z,27.97
2022-12-11T08:48:52.922Z,27.17
2022-12-11T08:51:26.127Z,27.10
2022-12-11T08:53:57.041Z,25.03
2022-12-11T08:56:25.139Z,26.40
2022-12-11T08:58:52.765Z,26.50
2022-12-11T09:01:26.888Z,27.77
2022-12-11T09:03:56.599Z,25.10
2022-12-11T09:06:26.750Z,27.27
2022-12-11T09:08:56.035Z,27.03
2022-12-11T09:11:31.937Z,28.33
2022-12-11T09:14:05.132Z,22.20
2022-12-11T09:16:37.737Z,25.57
2022-12-11T09:19:07.504Z,25.07
2022-12-11T09:21:34.921Z,23.00
2022-12-11T09:24:05.016Z,25.80
2022-12-11T09:26:31.948Z,27.57
2022-12-11T09:28:59.503Z,25.90
2022-12-11T09:31:30.845Z,20.77
2022-12-11T09:34:02.026Z,25.00
2022-12-11T09:36:29.620Z,23.47
2022-12-11T09:47:42.555Z,23.27
2022-12-11T09:50:09.412Z,25.77
2022-12-11T09:53:08.390Z,23.37
2022-12-11T09:56:03.847Z,24.47
2022-12-11T09:58:48.490Z,23.07
2022-12-11T10:01:37.641Z,27.07
2022-12-11T10:04:32.522Z,25.67
2022-12-11T10:07:14.143Z,20.97
2022-12-11T10:09:59.885Z,26.83
2022-12-11T10:13:25.454Z,21.00
2022-12-11T10:16:03.887Z,24.23
2022-12-11T10:18:33.055Z,26.60
2022-12-11T10:21:03.427Z,23.40
2022-12-11T10:23:43.409Z,21.80
2022-12-11T10:26:30.166Z,27.90
2022-12-11T10:29:00.927Z,18.80
2022-12-11T10:31:57.178Z,22.00
2022-12-11T10:34:37.548Z,21.03
2022-12-11T10:37:04.325Z,22.23
2022-12-11T10:39:31.408Z,21.50
2022-12-11T10:41:58.297Z,24.70
2022-12-11T10:44:29.380Z,23.23
2022-12-11T10:47:20.197Z,20.67
2022-12-11T10:49:59.480Z,22.47
2022-12-11T10:52:42.369Z,22.60
2022-12-11T10:55:32.407Z,20.73
2022-12-11T10:58:04.593Z,21.00
2022-12-11T11:00:44.094Z,23.00
2022-12-11T11:03:27.646Z,20.80
2022-12-11T11:06:19.975Z,20.63
2022-12-11T11:08:51.062Z,18.93
2022-12-11T11:11:36.806Z,23.20
2022-12-11T11:14:15.888Z,19.97
2022-12-11T11:16:47.666Z,18.77
2022-12-11T11:19:33.784Z,20.90
2022-12-11T11:22:14.350Z,19.93
2022-12-11T11:24:56.357Z,20.23
2022-12-11T11:27:31.290Z,20.07
2022-12-11T11:30:19.104Z,22.70
2022-12-11T11:32:46.455Z,22.27
2022-12-11T11:35:13.433Z,25.90
2022-12-11T11:37:47.124Z,20.83
2022-12-11T11:40:22.127Z,22.17
2022-12-11T11:43:15.583Z,15.43
2022-12-11T11:45:59.623Z,19.67
2022-12-11T11:48:48.079Z,19.00
2022-12-11T11:51:51.296Z,21.83
2022-12-11T11:55:02.990Z,18.30
2022-12-11T11:58:02.724Z,18.90
2022-12-11T12:00:33.900Z,20.50
2022-12-11T12:03:17.354Z,23.60
2022-12-11T12:06:15.513Z,23.17
2022-12-11T12:09:03.615Z,23.60
2022-12-11T12:12:04.740Z,18.37
2022-12-11T12:14:51.984Z,23.37
2022-12-11T12:21:39.017Z,20.07
2022-12-11T12:24:49.089Z,26.53
2022-12-11T12:27:52.090Z,27.37
2022-12-11T12:30:23.009Z,28.70
2022-12-11T12:33:12.254Z,29.37
2022-12-11T12:35:52.771Z,36.27
2022-12-11T12:39:00.440Z,38.53
2022-12-11T12:42:08.109Z,38.77
2022-12-11T12:45:27.394Z,35.27
2022-12-11T12:47:54.265Z,32.87
2022-12-11T12:50:26.307Z,33.87
2022-12-11T12:52:55.475Z,41.70
2022-12-11T12:55:31.810Z,41.97
2022-12-11T12:58:06.311Z,34.80
2022-12-11T13:00:43.059Z,37.70
2022-12-11T13:03:13.318Z,42.13
2022-12-11T13:05:46.207Z,45.13
2022-12-11T13:08:24.307Z,37.13
2022-12-11T13:11:07.402Z,40.50
2022-12-11T13:13:41.309Z,38.30
2022-12-11T13:16:17.233Z,38.50
2022-12-11T13:18:48.225Z,33.10
2022-12-11T13:21:40.935Z,31.93
2022-12-11T13:24:20.338Z,27.57
2022-12-11T13:26:49.590Z,28.97
2022-12-11T13:29:36.471Z,33.97
2022-12-11T13:32:30.032Z,34.63
2022-12-11T13:35:03.998Z,25.00
2022-12-11T13:37:42.667Z,30.83
2022-12-11T13:40:38.313Z,29.93
2022-12-11T13:43:30.892Z,34.97
2022-12-11T13:46:12.132Z,32.67
2022-12-11T13:48:50.238Z,33.87
2022-12-11T13:51:22.016Z,33.07
2022-12-11T13:53:49.047Z,33.37
2022-12-11T13:56:22.193Z,32.23
2022-12-11T13:58:49.292Z,36.07
2022-12-11T14:01:32.190Z,32.63
2022-12-11T14:04:15.364Z,29.87
2022-12-11T14:06:42.537Z,32.20
2022-12-11T14:09:14.120Z,30.80
2022-12-11T14:11:43.200Z,36.83
2022-12-11T14:14:43.547Z,32.30
2022-12-11T14:17:25.124Z,32.47
2022-12-11T14:19:54.467Z,31.33
2022-12-11T14:22:25.476Z,31.43
2022-12-11T14:24:55.886Z,37.03
2022-12-11T14:27:23.669Z,27.83
2022-12-11T14:29:51.079Z,32.43
2022-12-11T14:32:33.771Z,30.53
2022-12-11T14:35:06.096Z,30.17
2022-12-11T14:37:35.636Z,39.97
2022-12-11T14:40:20.162Z,32.90
2022-12-11T14:42:59.861Z,25.47
2022-12-11T14:45:43.522Z,27.27
2022-12-11T14:48:22.060Z,29.67
2022-12-11T14:50:54.511Z,37.57
2022-12-11T14:53:29.345Z,25.73
2022-12-11T14:56:02.808Z,27.43
2022-12-11T14:58:31.217Z,31.93
2022-12-11T15:01:20.785Z,33.93
2022-12-11T15:03:47.907Z,32.03
2022-12-11T15:06:33.145Z,25.60
2022-12-11T15:09:17.576Z,33.27
2022-12-11T15:11:45.572Z,28.97
2022-12-11T15:14:16.240Z,29.50
2022-12-11T15:16:43.408Z,32.20
2022-12-11T15:19:26.056Z,30.43
2022-12-11T15:21:53.515Z,32.13
2022-12-11T15:24:32.230Z,28.73
2022-12-11T15:27:01.201Z,32.80
2022-12-11T15:29:36.523Z,33.43
2022-12-11T15:32:09.126Z,34.57
2022-12-11T15:34:49.997Z,36.00
2022-12-11T15:37:29.703Z,30.83
2022-12-11T15:39:59.658Z,34.57
2022-12-11T15:42:39.850Z,35.33
2022-12-11T15:45:15.752Z,35.33
2022-12-11T15:47:43.620Z,32.37
2022-12-11T15:50:27.924Z,37.63
2022-12-11T15:52:56.607Z,36.33
2022-12-11T15:55:29.709Z,34.40
2022-12-11T15:58:04.753Z,36.57
2022-12-11T16:00:32.054Z,35.60
2022-12-11T16:02:59.429Z,34.13
2022-12-11T16:05:27.371Z,34.53
2022-12-11T16:07:56.373Z,36.33
2022-12-11T16:10:23.152Z,39.20
2022-12-11T16:12:50.055Z,33.60
2022-12-11T16:15:23.264Z,32.83
2022-12-11T16:17:58.507Z,33.53
2022-12-11T16:20:25.348Z,40.73
2022-12-11T16:22:52.188Z,40.07
2022-12-11T16:25:18.960Z,34.70
2022-12-11T16:27:45.773Z,33.60
2022-12-11T16:30:13.977Z,31.87
2022-12-11T16:32:40.783Z,36.43
2022-12-11T16:35:07.910Z,31.97
2022-12-11T16:37:34.811Z,29.47
2022-12-11T16:40:01.576Z,32.13
2022-12-11T16:42:28.352Z,32.67
2022-12-11T16:45:03.211Z,33.87
2022-12-11T16:47:30.339Z,31.23
2022-12-11T16:49:59.352Z,27.33
2022-12-11T16:52:26.166Z,30.90
2022-12-11T16:54:52.950Z,28.57
2022-12-11T16:57:19.832Z,24.27
2022-12-11T16:59:47.899Z,28.37
2022-12-11T17:02:14.796Z,26.90
2022-12-11T17:04:42.134Z,25.37
2022-12-11T17:07:09.567Z,31.37
2022-12-11T17:09:36.381Z,30.87
2022-12-11T17:12:04.563Z,27.00
2022-12-11T17:14:31.706Z,25.53
2022-12-11T17:16:58.525Z,26.40
2022-12-11T17:19:26.571Z,24.63
2022-12-11T17:21:54.201Z,29.17
2022-12-11T17:24:21.012Z,24.27
2022-12-11T17:26:48.209Z,24.23
2022-12-11T17:29:15.184Z,24.90
2022-12-11T17:31:42.358Z,24.27
2022-12-11T17:34:09.140Z,22.23
2022-12-11T17:36:36.008Z,28.60
2022-12-11T17:39:03.263Z,26.97
2022-12-11T17:41:30.067Z,27.10
2022-12-11T17:43:56.903Z,28.77
2022-12-11T17:46:23.914Z,23.80
2022-12-11T17:48:50.868Z,29.43
2022-12-11T17:51:24.410Z,23.70
2022-12-11T17:53:53.037Z,25.80
2022-12-11T17:56:22.414Z,29.10
2022-12-11T17:58:49.643Z,27.57
2022-12-11T18:01:17.113Z,21.43
2022-12-11T18:03:44.172Z,22.80
2022-12-11T18:06:17.986Z,23.60
2022-12-11T18:08:46.060Z,25.87
2022-12-11T18:11:19.008Z,25.50
2022-12-11T18:13:46.591Z,26.00
2022-12-11T18:16:19.382Z,22.20
2022-12-11T18:18:50.775Z,25.83
2022-12-11T18:21:26.314Z,25.77
2022-12-11T18:23:54.079Z,23.37
2022-12-11T18:26:21.866Z,30.40
2022-12-11T18:28:50.625Z,22.90
2022-12-11T18:31:20.148Z,28.67
2022-12-11T18:33:47.590Z,26.83
2022-12-11T18:36:18.010Z,28.67
2022-12-11T18:38:45.356Z,24.10
2022-12-11T18:41:13.637Z,27.23
2022-12-11T18:43:41.422Z,26.27
2022-12-11T18:46:11.799Z,28.83
2022-12-11T18:48:38.837Z,24.67
2022-12-11T18:51:12.856Z,28.63
2022-12-11T18:53:40.952Z,27.63
2022-12-11T18:56:15.521Z,28.77
2022-12-11T18:58:42.892Z,23.23
2022-12-11T19:01:18.275Z,30.43
2022-12-11T19:03:45.423Z,34.70
2022-12-11T19:06:16.789Z,36.40
2022-12-11T19:08:44.049Z,39.90
2022-12-11T19:11:16.289Z,34.13
2022-12-11T19:13:43.917Z,40.77
2022-12-11T19:16:24.181Z,37.13
2022-12-11T19:18:51.158Z,35.27
2022-12-11T19:21:19.573Z,33.90
2022-12-11T19:23:47.476Z,38.93
2022-12-11T19:26:22.463Z,38.37
2022-12-11T19:28:53.852Z,40.53
2022-12-11T19:31:23.264Z,40.80
2022-12-11T19:33:50.820Z,41.93
2022-12-11T19:36:21.534Z,41.57
2022-12-11T19:38:48.858Z,42.53
2022-12-11T19:41:27.245Z,39.70
2022-12-11T19:43:57.000Z,39.63
2022-12-11T19:46:27.573Z,41.90
2022-12-11T19:48:57.565Z,39.80
2022-12-11T19:51:33.935Z,39.60
2022-12-11T19:54:04.882Z,40.83
2022-12-11T19:56:33.127Z,41.43
2022-12-11T19:59:02.904Z,33.77
2022-12-11T20:01:32.525Z,58.13
2022-12-11T20:04:03.906Z,44.17
2022-12-11T20:06:35.339Z,36.10
2022-12-11T20:09:05.986Z,36.00
2022-12-11T20:11:34.111Z,40.10
2022-12-11T20:14:00.995Z,39.00
2022-12-11T20:17:01.639Z,36.97
2022-12-11T20:19:18.615Z,43.70
2022-12-11T20:21:45.419Z,44.27
2022-12-11T20:24:12.226Z,46.37
2022-12-11T20:26:39.251Z,47.87
2022-12-11T20:29:08.101Z,49.20
2022-12-11T20:31:36.874Z,36.87
2022-12-11T20:34:04.869Z,38.37
2022-12-11T20:36:32.073Z,38.17
2022-12-11T20:38:59.561Z,35.43
2022-12-11T20:41:27.559Z,32.37
2022-12-11T20:43:54.418Z,32.07
2022-12-11T20:46:25.183Z,33.00
2022-12-11T20:48:53.498Z,36.47
2022-12-11T20:51:26.104Z,33.20
2022-12-11T20:53:59.093Z,31.47
2022-12-11T20:56:30.555Z,33.00
2022-12-11T20:59:02.551Z,36.70
2022-12-11T21:01:32.189Z,30.80
2022-12-11T21:04:00.618Z,30.17
2022-12-11T21:06:34.564Z,32.77
2022-12-11T21:09:17.754Z,31.60
2022-12-11T21:11:45.368Z,32.23
2022-12-11T21:14:13.785Z,36.87
2022-12-11T21:16:41.215Z,33.60
2022-12-11T21:19:15.120Z,34.43
2022-12-11T21:21:45.277Z,38.40
2022-12-11T21:24:23.293Z,35.80
2022-12-11T21:26:50.780Z,33.53
2022-12-11T21:29:17.814Z,37.30
2022-12-11T21:31:44.802Z,39.40
2022-12-11T21:34:11.761Z,39.50
2022-12-11T21:36:38.556Z,41.53
2022-12-11T21:39:05.358Z,46.53
2022-12-11T21:41:33.036Z,33.87
2022-12-11T21:45:25.875Z,37.83
2022-12-11T21:46:46.879Z,38.60
2022-12-11T21:49:13.720Z,38.30
2022-12-11T21:51:46.733Z,35.53
2022-12-11T21:54:18.261Z,44.40
2022-12-11T21:56:46.588Z,44.97
2022-12-11T21:59:14.560Z,40.23
2022-12-11T22:01:46.161Z,42.17
2022-12-11T22:04:15.051Z,43.77
2022-12-11T22:06:43.346Z,39.03
2022-12-11T22:09:12.386Z,35.43
2022-12-11T22:11:41.314Z,40.83
2022-12-11T22:14:08.788Z,39.00
2022-12-11T22:16:35.803Z,40.20
2022-12-11T22:19:02.739Z,43.03
2022-12-11T22:21:29.702Z,42.07
2022-12-11T22:23:56.638Z,40.57
2022-12-11T22:26:26.659Z,43.20
2022-12-11T22:28:54.432Z,43.13
2022-12-11T22:31:25.514Z,38.93
2022-12-11T22:33:54.893Z,39.33
2022-12-11T22:36:24.485Z,36.67
2022-12-11T22:38:52.490Z,35.23
2022-12-11T22:41:29.930Z,39.40
2022-12-11T22:43:57.813Z,35.17
2022-12-11T22:46:30.723Z,42.00
2022-12-11T22:48:58.799Z,37.70
2022-12-11T22:51:26.147Z,36.63
2022-12-11T22:53:53.008Z,37.60
2022-12-11T22:56:19.850Z,36.83
2022-12-11T22:58:46.894Z,37.00
2022-12-11T23:01:20.456Z,35.93
2022-12-11T23:03:48.713Z,37.20
2022-12-11T23:06:19.139Z,32.80
2022-12-11T23:08:46.145Z,35.17
2022-12-11T23:11:24.658Z,32.97
2022-12-11T23:13:52.807Z,34.43
2022-12-11T23:16:19.698Z,33.80
2022-12-11T23:18:46.549Z,35.70
2022-12-11T23:21:14.561Z,37.57
2022-12-11T23:23:42.759Z,35.40
2022-12-11T23:26:12.694Z,39.03
2022-12-11T23:28:41.170Z,37.00
2022-12-11T23:31:08.651Z,35.23
2022-12-11T23:33:35.494Z,40.20
2022-12-11T23:36:03.991Z,37.67
2022-12-11T23:38:30.831Z,39.80
2022-12-11T23:41:01.310Z,36.27
2022-12-11T23:43:28.290Z,37.33
2022-12-11T23:45:55.188Z,34.87
2022-12-11T23:48:22.127Z,34.80
2022-12-11T23:50:48.944Z,33.60
2022-12-11T23:53:15.902Z,34.77
2022-12-11T23:55:45.305Z,32.93
2022-12-11T23:58:12.637Z,34.37
